createdAt,value
2024-03-24T00:00:14.353Z,100211.23
2024-03-24T00:00:36.481Z,100207.64
2024-03-24T00:01:06.358Z,100211.20
2024-03-24T00:01:28.601Z,100210.66
2024-03-24T00:01:50.719Z,100206.06
2024-03-24T00:02:12.984Z,100205.96
2024-03-24T00:02:35.183Z,100208.86
2024-03-24T00:02:57.373Z,100206.27
2024-03-24T00:03:19.431Z,100205.48
2024-03-24T00:03:41.657Z,100206.77
2024-03-24T00:04:04.283Z,100205.52
2024-03-24T00:04:26.456Z,100209.43
2024-03-24T00:04:48.676Z,100206.73
2024-03-24T00:05:10.844Z,100207.55
2024-03-24T00:05:33.036Z,100207.60
2024-03-24T00:05:55.437Z,100204.38
2024-03-24T00:06:17.630Z,100209.72
2024-03-24T00:06:39.823Z,100205.96
2024-03-24T00:07:02.144Z,100205.89
2024-03-24T00:07:24.572Z,100204.55
2024-03-24T00:07:47.629Z,100206.89
2024-03-24T00:08:09.730Z,100207.88
2024-03-24T00:08:32.127Z,100207.25
2024-03-24T00:08:54.310Z,100208.02
2024-03-24T00:09:16.606Z,100207.04
2024-03-24T00:09:38.802Z,100204.66
2024-03-24T00:10:02.952Z,100208.23
2024-03-24T00:10:25.230Z,100208.81
2024-03-24T00:10:47.313Z,100205.02
2024-03-24T00:11:09.415Z,100204.30
2024-03-24T00:11:31.609Z,100204.67
2024-03-24T00:11:53.909Z,100204.95
2024-03-24T00:12:16.099Z,100203.63
2024-03-24T00:12:38.221Z,100204.75
2024-03-24T00:13:00.342Z,100200.13
2024-03-24T00:13:22.577Z,100202.80
2024-03-24T00:13:44.975Z,100203.71
2024-03-24T00:14:07.293Z,100199.77
2024-03-24T00:14:29.976Z,100202.98
2024-03-24T00:14:52.072Z,100199.76
2024-03-24T00:15:14.288Z,100198.66
2024-03-24T00:15:36.455Z,100198.81
2024-03-24T00:15:58.954Z,100195.36
2024-03-24T00:16:22.683Z,100198.73
2024-03-24T00:16:44.876Z,100194.39
2024-03-24T00:17:08.438Z,100196.89
2024-03-24T00:17:30.508Z,100195.05
2024-03-24T00:17:52.715Z,100193.22
2024-03-24T00:18:14.980Z,100193.47
2024-03-24T00:18:37.120Z,100191.29
2024-03-24T00:19:00.301Z,100191.72
2024-03-24T00:19:22.370Z,100196.89
2024-03-24T00:19:44.471Z,100197.52
2024-03-24T00:20:07.189Z,100194.79
2024-03-24T00:20:29.369Z,100193.32
2024-03-24T00:20:51.560Z,100196.19
2024-03-24T00:21:13.758Z,100195.95
2024-03-24T00:21:36.981Z,100193.88
2024-03-24T00:21:59.259Z,100194.35
2024-03-24T00:22:22.279Z,100194.61
2024-03-24T00:22:44.471Z,100192.57
2024-03-24T00:23:08.644Z,100191.98
2024-03-24T00:24:24.190Z,100187.27
2024-03-24T00:24:46.695Z,100191.48
2024-03-24T00:25:10.732Z,100190.48
2024-03-24T00:25:33.635Z,100192.80
2024-03-24T00:25:55.826Z,100193.58
2024-03-24T00:26:18.054Z,100190.83
2024-03-24T00:26:40.215Z,100192.95
2024-03-24T00:27:02.716Z,100191.83
2024-03-24T00:27:24.840Z,100190.34
2024-03-24T00:27:47.108Z,100189.34
2024-03-24T00:28:09.332Z,100192.77
2024-03-24T00:28:31.596Z,100188.98
2024-03-24T00:28:53.784Z,100189.92
2024-03-24T00:29:15.982Z,100194.87
2024-03-24T00:29:38.177Z,100191.78
2024-03-24T00:30:00.420Z,100193.20
2024-03-24T00:30:22.766Z,100192.67
2024-03-24T00:30:44.961Z,100194.77
2024-03-24T00:31:07.176Z,100193.14
2024-03-24T00:31:29.455Z,100193.84
2024-03-24T00:31:52.258Z,100192.69
2024-03-24T00:32:14.374Z,100193.29
2024-03-24T00:32:36.658Z,100193.95
2024-03-24T00:32:59.180Z,100194.34
2024-03-24T00:33:21.336Z,100191.78
2024-03-24T00:33:43.430Z,100192.79
2024-03-24T00:34:05.625Z,100195.02
2024-03-24T00:34:27.859Z,100191.44
2024-03-24T00:34:50.113Z,100192.31
2024-03-24T00:35:12.305Z,100193.74
2024-03-24T00:35:34.426Z,100192.21
2024-03-24T00:35:56.696Z,100190.29
2024-03-24T00:36:18.939Z,100188.64
2024-03-24T00:36:41.109Z,100190.11
2024-03-24T00:37:03.279Z,100191.42
2024-03-24T00:37:25.396Z,100191.48
2024-03-24T00:37:47.659Z,100188.80
2024-03-24T00:38:09.798Z,100191.83
2024-03-24T00:38:32.047Z,100189.30
2024-03-24T00:38:54.238Z,100191.84
2024-03-24T00:39:16.439Z,100189.47
2024-03-24T00:39:39.144Z,100189.73
2024-03-24T00:40:02.294Z,100187.71
2024-03-24T00:40:24.446Z,100187.08
2024-03-24T00:40:46.640Z,100188.95
2024-03-24T00:41:08.868Z,100188.13
2024-03-24T00:41:31.026Z,100190.34
2024-03-24T00:41:53.220Z,100188.64
2024-03-24T00:42:15.416Z,100189.73
2024-03-24T00:42:37.608Z,100188.10
2024-03-24T00:42:59.829Z,100187.48
2024-03-24T00:43:21.951Z,100186.18
2024-03-24T00:43:44.193Z,100185.39
2024-03-24T00:44:06.394Z,100186.72
2024-03-24T00:44:29.322Z,100183.13
2024-03-24T00:44:51.613Z,100182.21
2024-03-24T00:45:13.782Z,100185.93
2024-03-24T00:45:35.857Z,100181.48
2024-03-24T00:45:58.167Z,100183.32
2024-03-24T00:46:20.289Z,100180.59
2024-03-24T00:46:42.456Z,100180.52
2024-03-24T00:47:04.963Z,100178.86
2024-03-24T00:47:27.179Z,100179.11
2024-03-24T00:47:50.874Z,100179.20
2024-03-24T00:48:12.997Z,100180.00
2024-03-24T00:48:35.268Z,100178.50
2024-03-24T00:48:57.492Z,100178.04
2024-03-24T00:49:19.647Z,100178.83
2024-03-24T00:49:41.771Z,100179.05
2024-03-24T00:50:04.258Z,100179.31
2024-03-24T00:50:27.355Z,100180.39
2024-03-24T00:50:49.548Z,100177.23
2024-03-24T00:51:11.743Z,100178.52
2024-03-24T00:51:34.375Z,100180.08
2024-03-24T00:51:56.538Z,100177.46
2024-03-24T00:52:18.733Z,100178.48
2024-03-24T00:52:41.027Z,100175.67
2024-03-24T00:53:05.182Z,100174.17
2024-03-24T00:53:27.359Z,100173.09
2024-03-24T00:53:49.594Z,100173.67
2024-03-24T00:54:11.857Z,100167.83
2024-03-24T00:54:34.041Z,100168.81
2024-03-24T00:54:56.436Z,100168.90
2024-03-24T00:55:18.774Z,100169.52
2024-03-24T00:55:41.029Z,100169.85
2024-03-24T00:56:03.938Z,100169.83
2024-03-24T00:56:26.033Z,100167.55
2024-03-24T00:56:48.325Z,100169.79
2024-03-24T00:57:10.422Z,100171.05
2024-03-24T00:57:32.619Z,100171.38
2024-03-24T00:57:54.806Z,100170.23
2024-03-24T00:58:17.004Z,100171.48
2024-03-24T00:58:39.193Z,100169.48
2024-03-24T00:59:01.390Z,100171.84
2024-03-24T00:59:23.642Z,100169.81
2024-03-24T00:59:45.891Z,100171.95
2024-03-24T01:00:08.375Z,100172.70
2024-03-24T01:00:32.324Z,100173.30
2024-03-24T01:00:55.833Z,100172.89
2024-03-24T01:01:18.024Z,100171.20
2024-03-24T01:01:40.179Z,100169.17
2024-03-24T01:02:02.312Z,100170.33
2024-03-24T01:02:24.516Z,100167.73
2024-03-24T01:02:50.276Z,100168.35
2024-03-24T01:03:12.467Z,100172.04
2024-03-24T01:03:34.867Z,100166.02
2024-03-24T01:03:56.956Z,100163.65
2024-03-24T01:04:19.153Z,100167.58
2024-03-24T01:04:41.281Z,100169.69
2024-03-24T01:05:05.174Z,100165.75
2024-03-24T01:05:27.298Z,100163.94
2024-03-24T01:05:50.280Z,100165.73
2024-03-24T01:06:12.370Z,100166.64
2024-03-24T01:06:35.176Z,100163.44
2024-03-24T01:06:57.379Z,100165.05
2024-03-24T01:07:20.795Z,100167.05
2024-03-24T01:07:42.913Z,100166.07
2024-03-24T01:08:05.374Z,100166.96
2024-03-24T01:08:29.722Z,100165.06
2024-03-24T01:08:52.224Z,100166.68
2024-03-24T01:09:14.930Z,100167.54
2024-03-24T01:09:37.122Z,100166.40
2024-03-24T01:09:59.212Z,100167.92
2024-03-24T01:10:21.437Z,100165.27
2024-03-24T01:10:43.867Z,100167.61
2024-03-24T01:11:07.538Z,100164.40
2024-03-24T01:11:29.811Z,100169.38
2024-03-24T01:11:53.690Z,100167.89
2024-03-24T01:12:15.956Z,100165.22
2024-03-24T01:12:38.153Z,100164.27
2024-03-24T01:13:00.651Z,100164.01
2024-03-24T01:13:23.661Z,100163.62
2024-03-24T01:13:46.162Z,100169.01
2024-03-24T01:14:08.459Z,100162.71
2024-03-24T01:14:30.961Z,100158.89
2024-03-24T01:14:53.068Z,100159.26
2024-03-24T01:15:15.274Z,100161.23
2024-03-24T01:15:37.440Z,100164.92
2024-03-24T01:15:59.613Z,100159.07
2024-03-24T01:16:22.337Z,100161.81
2024-03-24T01:16:44.866Z,100163.43
2024-03-24T01:17:07.036Z,100161.05
2024-03-24T01:17:30.685Z,100167.91
2024-03-24T01:17:52.850Z,100165.02
2024-03-24T01:18:15.043Z,100165.05
2024-03-24T01:18:37.235Z,100162.02
2024-03-24T01:18:59.433Z,100164.16
2024-03-24T01:19:21.625Z,100164.54
2024-03-24T01:19:43.817Z,100163.02
2024-03-24T01:20:06.320Z,100163.27
2024-03-24T01:20:28.512Z,100163.15
2024-03-24T01:20:50.702Z,100161.44
2024-03-24T01:21:13.613Z,100162.54
2024-03-24T01:21:35.909Z,100162.05
2024-03-24T01:21:58.030Z,100162.67
2024-03-24T01:22:20.603Z,100159.89
2024-03-24T01:22:43.527Z,100164.29
2024-03-24T01:23:05.633Z,100161.02
2024-03-24T01:23:27.796Z,100163.52
2024-03-24T01:23:49.992Z,100161.84
2024-03-24T01:24:12.053Z,100166.93
2024-03-24T01:24:34.582Z,100161.57
2024-03-24T01:24:56.706Z,100160.75
2024-03-24T01:25:18.969Z,100160.33
2024-03-24T01:25:41.161Z,100160.02
2024-03-24T01:26:03.356Z,100158.68
2024-03-24T01:26:25.561Z,100160.11
2024-03-24T01:26:47.642Z,100156.52
2024-03-24T01:27:09.843Z,100157.41
2024-03-24T01:27:31.925Z,100157.83
2024-03-24T01:27:54.125Z,100162.70
2024-03-24T01:28:16.313Z,100161.82
2024-03-24T01:28:38.425Z,100163.12
2024-03-24T01:29:01.313Z,100159.80
2024-03-24T01:29:24.434Z,100157.80
2024-03-24T01:29:46.632Z,100159.77
2024-03-24T01:30:09.424Z,100158.14
2024-03-24T01:30:31.625Z,100160.01
2024-03-24T01:30:53.832Z,100157.29
2024-03-24T01:31:16.020Z,100159.48
2024-03-24T01:31:38.310Z,100156.97
2024-03-24T01:32:00.383Z,100154.45
2024-03-24T01:32:22.595Z,100154.73
2024-03-24T01:32:44.679Z,100154.71
2024-03-24T01:33:06.975Z,100157.99
2024-03-24T01:33:29.203Z,100157.30
2024-03-24T01:33:51.468Z,100152.09
2024-03-24T01:34:13.661Z,100152.99
2024-03-24T01:34:35.852Z,100152.14
2024-03-24T01:34:57.983Z,100151.31
2024-03-24T01:35:20.557Z,100150.52
2024-03-24T01:35:46.424Z,100149.33
2024-03-24T01:36:08.720Z,100150.11
2024-03-24T01:36:30.912Z,100148.45
2024-03-24T01:36:53.210Z,100147.09
2024-03-24T01:37:15.403Z,100146.30
2024-03-24T01:37:37.702Z,100148.25
2024-03-24T01:37:59.897Z,100148.14
2024-03-24T01:38:22.036Z,100149.05
2024-03-24T01:38:44.177Z,100146.17
2024-03-24T01:39:06.382Z,100145.13
2024-03-24T01:39:28.492Z,100146.59
2024-03-24T01:39:51.279Z,100144.38
2024-03-24T01:40:13.487Z,100147.75
2024-03-24T01:40:35.665Z,100141.39
2024-03-24T01:40:57.856Z,100144.36
2024-03-24T01:41:19.941Z,100143.04
2024-03-24T01:41:42.134Z,100141.70
2024-03-24T01:42:04.326Z,100143.34
2024-03-24T01:42:26.541Z,100140.80
2024-03-24T01:42:48.718Z,100142.23
2024-03-24T01:43:10.944Z,100140.19
2024-03-24T01:43:33.206Z,100139.58
2024-03-24T01:43:56.125Z,100140.31
2024-03-24T01:44:18.308Z,100140.91
2024-03-24T01:44:40.508Z,100140.81
2024-03-24T01:45:03.349Z,100141.04
2024-03-24T01:45:25.523Z,100141.09
2024-03-24T01:45:48.211Z,100141.66
2024-03-24T01:46:10.350Z,100141.13
2024-03-24T01:46:32.594Z,100141.80
2024-03-24T01:46:54.998Z,100141.25
2024-03-24T01:47:17.698Z,100138.41
2024-03-24T01:47:39.887Z,100139.38
2024-03-24T01:48:01.993Z,100140.02
2024-03-24T01:48:24.283Z,100137.84
2024-03-24T01:48:46.475Z,100139.81
2024-03-24T01:49:08.609Z,100138.36
2024-03-24T01:49:30.863Z,100135.50
2024-03-24T01:49:53.057Z,100138.22
2024-03-24T01:50:15.350Z,100136.56
2024-03-24T01:50:37.667Z,100138.64
2024-03-24T01:50:59.840Z,100135.14
2024-03-24T01:51:23.352Z,100137.90
2024-03-24T01:51:45.557Z,100136.69
2024-03-24T01:52:08.070Z,100136.73
2024-03-24T01:52:30.252Z,100137.31
2024-03-24T01:52:52.454Z,100135.61
2024-03-24T01:53:14.637Z,100135.28
2024-03-24T01:53:39.389Z,100135.69
2024-03-24T01:54:01.493Z,100137.88
2024-03-24T01:54:24.391Z,100136.36
2024-03-24T01:54:46.456Z,100135.05
2024-03-24T01:55:08.718Z,100136.66
2024-03-24T01:55:31.171Z,100134.95
2024-03-24T01:55:53.368Z,100134.87
2024-03-24T01:56:16.566Z,100134.63
2024-03-24T01:56:38.776Z,100131.50
2024-03-24T01:57:01.071Z,100135.12
2024-03-24T01:57:23.578Z,100133.56
2024-03-24T01:57:45.779Z,100134.02
2024-03-24T01:58:07.981Z,100133.23
2024-03-24T01:58:33.355Z,100134.86
2024-03-24T01:58:56.232Z,100131.23
2024-03-24T01:59:18.424Z,100133.23
2024-03-24T01:59:40.628Z,100134.33
2024-03-24T02:00:03.456Z,100134.90
2024-03-24T02:00:34.970Z,100134.27
2024-03-24T02:00:57.327Z,100132.06
2024-03-24T02:01:19.455Z,100132.45
2024-03-24T02:01:41.716Z,100131.65
2024-03-24T02:02:03.952Z,100133.27
2024-03-24T02:02:26.028Z,100131.44
2024-03-24T02:02:48.304Z,100132.88
2024-03-24T02:03:11.000Z,100135.52
2024-03-24T02:03:33.122Z,100132.14
2024-03-24T02:03:55.284Z,100130.06
2024-03-24T02:04:17.408Z,100130.66
2024-03-24T02:04:49.183Z,100132.92
2024-03-24T02:05:11.579Z,100132.73
2024-03-24T02:05:33.779Z,100133.90
2024-03-24T02:05:55.968Z,100132.98
2024-03-24T02:06:18.295Z,100133.41
2024-03-24T02:06:40.560Z,100131.93
2024-03-24T02:07:02.619Z,100132.56
2024-03-24T02:07:24.793Z,100134.23
2024-03-24T02:07:47.039Z,100133.45
2024-03-24T02:08:09.233Z,100132.16
2024-03-24T02:08:31.560Z,100132.45
2024-03-24T02:08:54.028Z,100133.27
2024-03-24T02:09:16.348Z,100129.91
2024-03-24T02:09:39.338Z,100131.64
2024-03-24T02:10:01.530Z,100130.59
2024-03-24T02:10:27.218Z,100129.38
2024-03-24T02:10:49.425Z,100127.00
2024-03-24T02:11:11.594Z,100125.67
2024-03-24T02:11:33.661Z,100127.44
2024-03-24T02:11:57.740Z,100128.06
2024-03-24T02:12:19.909Z,100130.55
2024-03-24T02:12:42.101Z,100128.54
2024-03-24T02:13:04.398Z,100126.02
2024-03-24T02:13:26.742Z,100129.86
2024-03-24T02:13:48.988Z,100131.86
2024-03-24T02:14:11.106Z,100127.94
2024-03-24T02:14:33.200Z,100126.98
2024-03-24T02:14:55.366Z,100128.91
2024-03-24T02:15:17.582Z,100127.23
2024-03-24T02:15:39.754Z,100129.56
2024-03-24T02:16:01.942Z,100127.68
2024-03-24T02:16:24.251Z,100126.39
2024-03-24T02:16:46.435Z,100124.16
2024-03-24T02:17:08.627Z,100127.52
2024-03-24T02:17:30.710Z,100125.33
2024-03-24T02:17:57.794Z,100124.19
2024-03-24T02:18:25.536Z,100125.48
2024-03-24T02:18:51.053Z,100119.45
2024-03-24T02:19:13.463Z,100124.73
2024-03-24T02:19:35.698Z,100124.08
2024-03-24T02:19:57.792Z,100121.70
2024-03-24T02:20:19.910Z,100121.42
2024-03-24T02:20:42.104Z,100122.66
2024-03-24T02:21:04.676Z,100123.78
2024-03-24T02:21:27.391Z,100123.35
2024-03-24T02:21:49.576Z,100122.33
2024-03-24T02:22:11.809Z,100123.98
2024-03-24T02:22:39.997Z,100121.94
2024-03-24T02:23:02.064Z,100121.34
2024-03-24T02:23:24.155Z,100119.82
2024-03-24T02:23:46.372Z,100124.45
2024-03-24T02:24:08.771Z,100122.02
2024-03-24T02:24:30.891Z,100121.92
2024-03-24T02:24:53.058Z,100123.33
2024-03-24T02:25:15.184Z,100123.72
2024-03-24T02:25:37.861Z,100124.04
2024-03-24T02:26:00.044Z,100119.88
2024-03-24T02:26:22.343Z,100121.23
2024-03-24T02:26:44.432Z,100123.29
2024-03-24T02:27:06.727Z,100124.45
2024-03-24T02:27:28.923Z,100121.61
2024-03-24T02:27:51.115Z,100121.56
2024-03-24T02:28:13.352Z,100124.09
2024-03-24T02:28:36.013Z,100123.90
2024-03-24T02:28:58.213Z,100123.92
2024-03-24T02:29:20.415Z,100123.34
2024-03-24T02:29:42.603Z,100124.69
2024-03-24T02:30:05.631Z,100122.58
2024-03-24T02:30:28.723Z,100125.15
2024-03-24T02:30:50.848Z,100121.67
2024-03-24T02:31:13.023Z,100122.73
2024-03-24T02:31:35.200Z,100122.06
2024-03-24T02:31:57.270Z,100121.45
2024-03-24T02:32:19.487Z,100121.46
2024-03-24T02:32:44.749Z,100122.80
2024-03-24T02:33:06.942Z,100126.54
2024-03-24T02:33:29.341Z,100122.55
2024-03-24T02:33:51.559Z,100124.06
2024-03-24T02:34:13.859Z,100123.63
2024-03-24T02:34:35.926Z,100123.73
2024-03-24T02:34:58.521Z,100123.42
2024-03-24T02:35:20.817Z,100121.04
2024-03-24T02:35:43.228Z,100120.63
2024-03-24T02:36:05.819Z,100120.14
2024-03-24T02:36:28.013Z,100119.34
2024-03-24T02:36:50.132Z,100118.52
2024-03-24T02:37:12.331Z,100119.29
2024-03-24T02:37:34.488Z,100116.58
2024-03-24T02:37:56.712Z,100119.94
2024-03-24T02:38:19.995Z,100117.91
2024-03-24T02:38:42.807Z,100119.70
2024-03-24T02:39:06.433Z,100117.88
2024-03-24T02:39:29.354Z,100119.51
2024-03-24T02:39:51.436Z,100120.96
2024-03-24T02:40:13.577Z,100121.04
2024-03-24T02:40:36.236Z,100119.35
2024-03-24T02:40:58.429Z,100119.95
2024-03-24T02:41:20.620Z,100119.65
2024-03-24T02:41:42.819Z,100121.86
2024-03-24T02:42:05.926Z,100119.99
2024-03-24T02:42:27.984Z,100123.02
2024-03-24T02:42:50.218Z,100124.30
2024-03-24T02:43:12.372Z,100120.53
2024-03-24T02:43:37.466Z,100121.30
2024-03-24T02:43:59.656Z,100123.82
2024-03-24T02:44:21.775Z,100123.18
2024-03-24T02:44:44.045Z,100122.08
2024-03-24T02:45:13.191Z,100121.98
2024-03-24T02:45:35.314Z,100122.91
2024-03-24T02:45:57.714Z,100121.73
2024-03-24T02:46:19.873Z,100119.75
2024-03-24T02:46:42.067Z,100120.01
2024-03-24T02:47:04.647Z,100121.52
2024-03-24T02:47:26.941Z,100120.54
2024-03-24T02:47:49.192Z,100119.69
2024-03-24T02:48:11.355Z,100121.20
2024-03-24T02:48:33.444Z,100120.25
2024-03-24T02:48:55.638Z,100120.95
2024-03-24T02:49:17.744Z,100120.80
2024-03-24T02:49:39.922Z,100120.44
2024-03-24T02:50:02.122Z,100116.40
2024-03-24T02:50:24.310Z,100115.33
2024-03-24T02:50:46.400Z,100116.84
2024-03-24T02:51:11.402Z,100115.02
2024-03-24T02:51:34.995Z,100116.90
2024-03-24T02:51:57.076Z,100114.20
2024-03-24T02:52:19.371Z,100114.86
2024-03-24T02:52:41.563Z,100114.23
2024-03-24T02:53:03.962Z,100113.49
2024-03-24T02:53:26.563Z,100114.88
2024-03-24T02:53:48.685Z,100115.50
2024-03-24T02:54:10.847Z,100116.14
2024-03-24T02:54:32.971Z,100115.10
2024-03-24T02:54:55.242Z,100112.46
2024-03-24T02:55:17.428Z,100116.12
2024-03-24T02:55:45.454Z,100115.11
2024-03-24T02:56:07.902Z,100114.83
2024-03-24T02:56:30.255Z,100111.41
2024-03-24T02:56:52.440Z,100110.63
2024-03-24T02:57:14.563Z,100113.67
2024-03-24T02:57:36.651Z,100116.98
2024-03-24T02:57:58.744Z,100112.00
2024-03-24T02:58:20.924Z,100113.98
2024-03-24T02:58:43.027Z,100115.42
2024-03-24T02:59:05.214Z,100112.47
2024-03-24T02:59:27.914Z,100114.70
2024-03-24T02:59:50.705Z,100114.02
2024-03-24T03:00:14.672Z,100116.66
2024-03-24T03:00:36.829Z,100115.83
2024-03-24T03:00:59.024Z,100118.87
2024-03-24T03:01:21.543Z,100120.33
2024-03-24T03:01:43.729Z,100117.92
2024-03-24T03:02:05.809Z,100119.89
2024-03-24T03:02:28.415Z,100118.03
2024-03-24T03:02:50.617Z,100121.39
2024-03-24T03:03:13.823Z,100117.09
2024-03-24T03:03:35.919Z,100118.36
2024-03-24T03:03:58.514Z,100124.54
2024-03-24T03:04:20.608Z,100122.67
2024-03-24T03:04:42.698Z,100125.19
2024-03-24T03:05:05.611Z,100125.52
2024-03-24T03:05:27.743Z,100124.90
2024-03-24T03:05:50.185Z,100123.17
2024-03-24T03:06:13.214Z,100122.52
2024-03-24T03:06:35.508Z,100123.44
2024-03-24T03:06:58.316Z,100125.73
2024-03-24T03:07:20.520Z,100123.85
2024-03-24T03:07:43.961Z,100125.75
2024-03-24T03:08:06.239Z,100122.27
2024-03-24T03:08:28.416Z,100123.72
2024-03-24T03:08:50.550Z,100123.33
2024-03-24T03:09:15.370Z,100124.11
2024-03-24T03:09:37.430Z,100125.09
2024-03-24T03:09:59.530Z,100123.96
2024-03-24T03:10:21.770Z,100126.85
2024-03-24T03:10:44.037Z,100128.69
2024-03-24T03:11:06.166Z,100128.94
2024-03-24T03:11:28.421Z,100126.61
2024-03-24T03:11:50.490Z,100125.33
2024-03-24T03:12:12.721Z,100126.64
2024-03-24T03:12:35.515Z,100126.08
2024-03-24T03:12:59.072Z,100124.80
2024-03-24T03:13:21.238Z,100127.41
2024-03-24T03:13:43.353Z,100126.36
2024-03-24T03:14:05.618Z,100128.50
2024-03-24T03:14:27.939Z,100131.47
2024-03-24T03:14:50.115Z,100129.77
2024-03-24T03:15:16.406Z,100127.93
2024-03-24T03:15:38.733Z,100131.64
2024-03-24T03:16:01.086Z,100132.70
2024-03-24T03:16:23.140Z,100133.97
2024-03-24T03:16:45.371Z,100131.04
2024-03-24T03:17:07.870Z,100133.00
2024-03-24T03:17:30.110Z,100137.55
2024-03-24T03:17:52.767Z,100136.04
2024-03-24T03:18:14.963Z,100138.81
2024-03-24T03:18:38.106Z,100136.41
2024-03-24T03:19:00.271Z,100135.59
2024-03-24T03:19:22.872Z,100134.91
2024-03-24T03:19:45.065Z,100138.42
2024-03-24T03:20:09.816Z,100137.05
2024-03-24T03:20:32.374Z,100134.66
2024-03-24T03:20:54.612Z,100137.49
2024-03-24T03:21:16.659Z,100136.98
2024-03-24T03:21:39.109Z,100139.84
2024-03-24T03:22:01.279Z,100136.91
2024-03-24T03:22:23.603Z,100141.79
2024-03-24T03:22:46.502Z,100139.56
2024-03-24T03:23:08.793Z,100137.04
2024-03-24T03:23:30.876Z,100137.27
2024-03-24T03:23:53.491Z,100138.48
2024-03-24T03:24:15.686Z,100136.23
2024-03-24T03:24:37.977Z,100136.67
2024-03-24T03:25:00.318Z,100136.52
2024-03-24T03:25:22.571Z,100135.33
2024-03-24T03:25:44.815Z,100132.95
2024-03-24T03:26:08.185Z,100132.80
2024-03-24T03:26:30.408Z,100135.32
2024-03-24T03:26:52.599Z,100133.79
2024-03-24T03:27:15.726Z,100138.01
2024-03-24T03:27:38.094Z,100135.77
2024-03-24T03:28:00.280Z,100134.43
2024-03-24T03:28:22.690Z,100135.16
2024-03-24T03:28:44.773Z,100135.95
2024-03-24T03:29:06.889Z,100136.46
2024-03-24T03:29:29.053Z,100132.65
2024-03-24T03:29:51.245Z,100138.53
2024-03-24T03:30:14.179Z,100134.48
2024-03-24T03:30:36.454Z,100134.77
2024-03-24T03:30:58.646Z,100138.02
2024-03-24T03:31:20.847Z,100136.89
2024-03-24T03:31:43.171Z,100137.36
2024-03-24T03:32:05.565Z,100136.40
2024-03-24T03:32:28.074Z,100138.77
2024-03-24T03:32:52.382Z,100136.94
2024-03-24T03:33:15.080Z,100138.76
2024-03-24T03:33:38.501Z,100139.00
2024-03-24T03:34:00.594Z,100138.23
2024-03-24T03:34:23.095Z,100140.27
2024-03-24T03:34:45.389Z,100139.02
2024-03-24T03:35:07.702Z,100141.38
2024-03-24T03:35:29.961Z,100139.81
2024-03-24T03:35:53.981Z,100139.98
2024-03-24T03:36:16.318Z,100140.31
2024-03-24T03:36:39.050Z,100140.52
2024-03-24T03:37:01.732Z,100140.70
2024-03-24T03:37:24.119Z,100140.75
2024-03-24T03:37:46.192Z,100141.48
2024-03-24T03:38:09.630Z,100141.52
2024-03-24T03:38:31.772Z,100140.16
2024-03-24T03:38:56.682Z,100140.02
2024-03-24T03:39:18.870Z,100139.92
2024-03-24T03:39:42.219Z,100138.88
2024-03-24T03:40:05.940Z,100141.04
2024-03-24T03:40:28.111Z,100138.30
2024-03-24T03:40:50.203Z,100139.55
2024-03-24T03:41:12.302Z,100138.40
2024-03-24T03:41:34.894Z,100139.13
2024-03-24T03:41:57.089Z,100136.57
2024-03-24T03:42:20.310Z,100137.14
2024-03-24T03:42:42.427Z,100140.33
2024-03-24T03:43:05.128Z,100141.73
2024-03-24T03:43:28.629Z,100140.27
2024-03-24T03:43:50.821Z,100133.30
2024-03-24T03:44:13.012Z,100140.66
2024-03-24T03:44:36.124Z,100139.69
2024-03-24T03:44:58.322Z,100138.66
2024-03-24T03:45:22.973Z,100135.20
2024-03-24T03:45:45.044Z,100139.62
2024-03-24T03:46:07.368Z,100137.27
2024-03-24T03:46:29.550Z,100134.70
2024-03-24T03:46:51.841Z,100135.13
2024-03-24T03:47:16.835Z,100138.28
2024-03-24T03:47:39.418Z,100137.85
2024-03-24T03:48:01.504Z,100135.80
2024-03-24T03:48:23.994Z,100136.00
2024-03-24T03:48:46.492Z,100134.67
2024-03-24T03:49:08.612Z,100136.45
2024-03-24T03:49:30.705Z,100137.36
2024-03-24T03:49:53.071Z,100136.04
2024-03-24T03:50:18.350Z,100135.35
2024-03-24T03:50:42.200Z,100136.24
2024-03-24T03:51:09.981Z,100136.79
2024-03-24T03:51:38.633Z,100136.77
2024-03-24T03:52:00.739Z,100136.19
2024-03-24T03:52:27.098Z,100136.45
2024-03-24T03:52:49.306Z,100136.10
2024-03-24T03:53:12.304Z,100138.41
2024-03-24T03:53:38.078Z,100137.44
2024-03-24T03:54:00.273Z,100138.02
2024-03-24T03:54:23.207Z,100139.66
2024-03-24T03:54:46.088Z,100138.34
2024-03-24T03:55:12.801Z,100138.79
2024-03-24T03:55:35.285Z,100137.30
2024-03-24T03:55:57.478Z,100136.17
2024-03-24T03:56:19.592Z,100137.88
2024-03-24T03:56:42.178Z,100137.47
2024-03-24T03:57:05.082Z,100132.90
2024-03-24T03:57:27.651Z,100134.81
2024-03-24T03:57:49.886Z,100133.09
2024-03-24T03:58:13.124Z,100133.95
2024-03-24T03:58:35.491Z,100130.67
2024-03-24T03:58:57.788Z,100131.03
2024-03-24T03:59:20.508Z,100130.71
2024-03-24T03:59:42.684Z,100125.86
2024-03-24T04:00:11.772Z,100129.90
2024-03-24T04:00:36.892Z,100127.34
2024-03-24T04:00:59.089Z,100126.27
2024-03-24T04:01:21.693Z,100128.05
2024-03-24T04:01:44.003Z,100127.33
2024-03-24T04:02:06.279Z,100129.47
2024-03-24T04:02:28.400Z,100128.62
2024-03-24T04:02:50.590Z,100129.63
2024-03-24T04:03:13.529Z,100129.85
2024-03-24T04:03:36.213Z,100129.13
2024-03-24T04:04:00.645Z,100128.78
2024-03-24T04:04:22.819Z,100127.41
2024-03-24T04:04:45.323Z,100127.61
2024-03-24T04:05:14.164Z,100127.57
2024-03-24T04:05:40.340Z,100127.44
2024-03-24T04:06:05.915Z,100130.58
2024-03-24T04:06:28.113Z,100128.37
2024-03-24T04:06:51.745Z,100129.79
2024-03-24T04:07:13.922Z,100129.61
2024-03-24T04:07:36.670Z,100128.88
2024-03-24T04:07:59.875Z,100125.98
2024-03-24T04:08:22.242Z,100127.02
2024-03-24T04:08:44.443Z,100125.80
2024-03-24T04:09:10.103Z,100127.58
2024-03-24T04:09:32.243Z,100123.91
2024-03-24T04:09:55.005Z,100125.86
2024-03-24T04:10:17.356Z,100124.79
2024-03-24T04:10:39.716Z,100128.26
2024-03-24T04:11:01.819Z,100124.35
2024-03-24T04:11:23.993Z,100125.38
2024-03-24T04:11:46.188Z,100127.04
2024-03-24T04:12:08.710Z,100126.23
2024-03-24T04:12:30.975Z,100127.23
2024-03-24T04:12:53.169Z,100127.80
2024-03-24T04:13:15.906Z,100127.34
2024-03-24T04:13:38.174Z,100127.05
2024-03-24T04:14:00.775Z,100124.69
2024-03-24T04:14:24.601Z,100125.80
2024-03-24T04:14:46.686Z,100124.50
2024-03-24T04:15:09.195Z,100124.02
2024-03-24T04:15:31.398Z,100120.86
2024-03-24T04:15:53.633Z,100125.27
2024-03-24T04:16:18.227Z,100123.46
2024-03-24T04:16:41.035Z,100123.95
2024-03-24T04:17:03.231Z,100124.44
2024-03-24T04:17:25.348Z,100126.15
2024-03-24T04:17:47.427Z,100123.54
2024-03-24T04:18:09.622Z,100122.54
2024-03-24T04:18:31.903Z,100123.23
2024-03-24T04:18:54.097Z,100122.58